Terminal Aerodrome Forecast
Issued by NWS Omaha/Valley, NE

Home | Current Version | Previous Version | Text Only | Print | Product List | Glossary On
Versions: 1 2 3 4 5 6 7 8 9 10 11 12 13 14 15 16 17 18 19 20 21 22 23 24 25 26 27 28 29 30 31 32 33 34 35 36 37 38 39 40 41 42 43 44
000
FTUS43 KOAX 062003 AAE
TAFLNK
TAF AMD
KLNK 062003Z 0620/0718 35014G22KT P6SM SCT015 OVC035
      TEMPO 0620/0622 5SM -SHRA BKN015
     FM062200 35015G24KT P6SM SCT025 BKN035
     FM070100 36012KT 6SM HZ SCT030 BKN250
     FM070600 36009KT 6SM HZ SCT250=

USA.gov is the U.S. government's official web portal to all federal, state and local government web resources and services.